createdAt,value
2023-11-03T00:00:10.101Z,98.31
2023-11-03T00:02:36.964Z,98.43
2023-11-03T00:05:06.103Z,98.88
2023-11-03T00:07:33.603Z,99.12
2023-11-03T00:10:01.446Z,99.27
2023-11-03T00:12:28.157Z,99.42
2023-11-03T00:14:54.717Z,99.52
2023-11-03T00:17:21.296Z,99.67
2023-11-03T00:19:48.149Z,99.74
2023-11-03T00:22:14.956Z,99.85
2023-11-03T00:24:42.123Z,99.96
2023-11-03T00:27:09.255Z,99.99
2023-11-03T00:29:35.980Z,99.99
2023-11-03T00:32:03.878Z,99.99
2023-11-03T00:34:30.684Z,99.99
2023-11-03T00:36:57.668Z,99.99
2023-11-03T00:39:24.229Z,99.99
2023-11-03T00:41:52.547Z,99.99
2023-11-03T00:44:20.060Z,99.99
2023-11-03T00:46:47.581Z,99.99
2023-11-03T00:49:14.818Z,99.99
2023-11-03T00:51:41.661Z,99.99
2023-11-03T00:54:10.588Z,99.99
2023-11-03T00:56:38.042Z,99.99
2023-11-03T00:59:04.930Z,99.99
2023-11-03T01:01:32.734Z,99.99
2023-11-03T01:03:59.393Z,99.99
2023-11-03T01:06:26.037Z,99.99
2023-11-03T01:08:52.675Z,99.99
2023-11-03T01:11:20.870Z,99.99
2023-11-03T01:13:47.492Z,99.99
2023-11-03T01:16:14.610Z,99.99
2023-11-03T01:18:42.091Z,99.99
2023-11-03T01:21:16.318Z,99.99
2023-11-03T01:23:44.234Z,99.99
2023-11-03T01:26:11.804Z,99.99
2023-11-03T01:28:38.787Z,99.99
2023-11-03T01:31:05.977Z,99.99
2023-11-03T01:33:33.215Z,99.99
2023-11-03T01:35:59.907Z,99.99
2023-11-03T01:38:26.477Z,99.99
2023-11-03T01:40:54.609Z,99.99
2023-11-03T01:43:21.651Z,99.99
2023-11-03T01:45:48.222Z,99.99
2023-11-03T01:48:15.052Z,99.99
2023-11-03T01:50:43.369Z,99.99
2023-11-03T01:53:11.477Z,99.99
2023-11-03T01:55:38.125Z,99.99
2023-11-03T01:58:05.275Z,99.99
2023-11-03T02:00:32.167Z,99.99
2023-11-03T02:02:58.796Z,99.99
2023-11-03T02:05:25.575Z,99.99
2023-11-03T02:07:52.262Z,99.99
2023-11-03T02:10:18.808Z,99.99
2023-11-03T02:12:45.527Z,99.99
2023-11-03T02:15:12.188Z,99.99
2023-11-03T02:17:40.366Z,99.99
2023-11-03T02:20:08.971Z,99.99
2023-11-03T02:22:35.844Z,99.99
2023-11-03T02:25:03.102Z,99.99
2023-11-03T02:27:29.941Z,99.99
2023-11-03T02:29:57.173Z,99.99
2023-11-03T02:32:24.041Z,99.99
2023-11-03T02:34:50.968Z,99.99
2023-11-03T02:37:17.580Z,99.99
2023-11-03T02:39:48.594Z,99.99
2023-11-03T02:42:17.035Z,99.99
2023-11-03T02:44:43.759Z,99.99
2023-11-03T02:47:10.310Z,99.99
2023-11-03T02:49:37.537Z,99.99
2023-11-03T02:52:04.527Z,99.99
2023-11-03T02:54:31.135Z,99.99
2023-11-03T02:56:57.733Z,99.99
2023-11-03T02:59:24.478Z,99.99
2023-11-03T03:01:51.139Z,99.99
2023-11-03T03:04:17.996Z,99.99
2023-11-03T03:06:46.882Z,99.99
2023-11-03T03:09:14.213Z,99.99
2023-11-03T03:11:41.496Z,99.99
2023-11-03T03:14:08.298Z,99.99
2023-11-03T03:16:34.892Z,99.99
2023-11-03T03:19:01.505Z,99.99
2023-11-03T03:21:28.076Z,99.99
2023-11-03T03:23:54.706Z,99.99
2023-11-03T03:26:21.315Z,99.99
2023-11-03T03:28:47.991Z,99.99
2023-11-03T03:31:14.685Z,99.99
2023-11-03T03:33:41.495Z,99.99
2023-11-03T03:36:09.274Z,99.99
2023-11-03T03:38:36.726Z,99.99
2023-11-03T03:41:03.406Z,99.99
2023-11-03T03:43:29.962Z,99.99
2023-11-03T03:45:56.567Z,99.99
2023-11-03T03:48:23.326Z,99.99
2023-11-03T03:50:49.869Z,99.99
2023-11-03T03:53:16.428Z,99.99
2023-11-03T03:55:43.179Z,99.99
2023-11-03T03:58:09.773Z,99.99
2023-11-03T04:00:36.508Z,99.99
2023-11-03T04:03:03.147Z,99.99
2023-11-03T04:05:29.722Z,99.99
2023-11-03T04:07:56.350Z,99.99
2023-11-03T04:10:22.948Z,99.99
2023-11-03T04:12:49.613Z,99.99
2023-11-03T04:15:16.203Z,99.99
2023-11-03T04:17:42.807Z,99.99
2023-11-03T04:20:09.831Z,99.99
2023-11-03T04:22:37.265Z,99.99
2023-11-03T04:25:04.237Z,99.99
2023-11-03T04:27:30.775Z,99.99
2023-11-03T04:29:57.332Z,99.99
2023-11-03T04:32:24.119Z,99.99
2023-11-03T04:34:50.822Z,99.99
2023-11-03T04:37:17.413Z,99.99
2023-11-03T04:39:43.953Z,99.99
2023-11-03T04:42:10.528Z,99.99
2023-11-03T04:44:37.186Z,99.99
2023-11-03T04:47:03.875Z,99.99
2023-11-03T04:49:31.655Z,99.99
2023-11-03T04:51:58.441Z,99.99
2023-11-03T04:54:25.098Z,99.99
2023-11-03T04:56:51.693Z,99.99
2023-11-03T04:59:18.459Z,99.99
2023-11-03T05:01:45.786Z,99.99
2023-11-03T05:04:12.325Z,99.99
2023-11-03T05:06:39.004Z,99.99
2023-11-03T05:09:07.462Z,99.99
2023-11-03T05:11:34.052Z,99.99
2023-11-03T05:14:00.673Z,99.99
2023-11-03T05:16:27.265Z,99.99
2023-11-03T05:18:53.797Z,99.99
2023-11-03T05:21:20.419Z,99.99
2023-11-03T05:23:47.031Z,99.99
2023-11-03T05:26:14.646Z,99.99
2023-11-03T05:28:42.170Z,99.99
2023-11-03T05:31:08.951Z,99.99
2023-11-03T05:33:35.699Z,99.99
2023-11-03T05:36:02.373Z,99.99
2023-11-03T05:38:29.000Z,99.99
2023-11-03T05:40:55.531Z,99.99
2023-11-03T05:43:22.312Z,99.99
2023-11-03T05:45:49.019Z,99.99
2023-11-03T05:48:15.673Z,99.99
2023-11-03T05:50:42.397Z,98.01
2023-11-03T05:53:09.289Z,98.01
2023-11-03T05:55:35.834Z,98.70
2023-11-03T05:58:02.540Z,99.10
2023-11-03T06:00:30.619Z,97.86
2023-11-03T06:02:57.643Z,97.94
2023-11-03T06:05:24.288Z,98.48
2023-11-03T06:07:50.789Z,98.19
2023-11-03T06:10:17.431Z,97.79
2023-11-03T06:12:44.064Z,97.30
2023-11-03T06:15:10.779Z,97.21
2023-11-03T06:17:37.358Z,97.77
2023-11-03T06:20:04.560Z,97.45
2023-11-03T06:22:31.198Z,96.94
2023-11-03T06:24:57.851Z,97.00
2023-11-03T06:27:24.507Z,96.92
2023-11-03T06:29:51.149Z,97.45
2023-11-03T06:32:17.754Z,97.57
2023-11-03T06:34:44.848Z,98.14
2023-11-03T06:37:11.537Z,98.51
2023-11-03T06:39:38.604Z,98.65
2023-11-03T06:42:08.990Z,98.77
2023-11-03T06:44:36.273Z,98.90
2023-11-03T06:47:04.350Z,99.25
2023-11-03T06:49:30.993Z,99.13
2023-11-03T06:51:57.624Z,98.89
2023-11-03T06:54:24.859Z,98.19
2023-11-03T06:56:51.647Z,98.46
2023-11-03T06:59:18.204Z,97.30
2023-11-03T07:01:44.690Z,96.48
2023-11-03T07:04:11.257Z,97.20
2023-11-03T07:06:37.868Z,97.72
2023-11-03T07:09:05.896Z,98.02
2023-11-03T07:11:32.538Z,98.27
2023-11-03T07:13:59.976Z,98.52
2023-11-03T07:16:26.566Z,98.92
2023-11-03T07:18:53.546Z,98.28
2023-11-03T07:21:20.160Z,98.37
2023-11-03T07:23:47.394Z,96.73
2023-11-03T07:26:14.789Z,97.94
2023-11-03T07:28:43.773Z,98.01
2023-11-03T07:31:12.763Z,98.23
2023-11-03T07:33:41.336Z,98.63
2023-11-03T07:36:11.484Z,98.89
2023-11-03T07:38:38.448Z,98.95
2023-11-03T07:41:06.376Z,99.04
2023-11-03T07:43:32.906Z,99.49
2023-11-03T07:45:59.720Z,99.21
2023-11-03T07:48:26.501Z,99.01
2023-11-03T07:50:53.716Z,99.19
2023-11-03T07:53:20.303Z,99.43
2023-11-03T07:55:46.989Z,99.22
2023-11-03T07:58:14.977Z,99.24
2023-11-03T08:00:41.571Z,99.07
2023-11-03T08:03:08.876Z,99.10
2023-11-03T08:05:35.822Z,98.09
2023-11-03T08:08:03.134Z,97.66
2023-11-03T08:10:30.349Z,97.15
2023-11-03T08:12:58.518Z,96.52
2023-11-03T08:15:25.213Z,94.72
2023-11-03T08:17:51.894Z,91.89
2023-11-03T08:20:19.987Z,91.60
2023-11-03T08:22:49.378Z,91.53
2023-11-03T08:25:16.580Z,93.07
2023-11-03T08:27:43.193Z,91.51
2023-11-03T08:30:09.980Z,92.33
2023-11-03T08:32:37.413Z,90.75
2023-11-03T08:35:06.616Z,91.84
2023-11-03T08:37:34.113Z,90.27
2023-11-03T08:40:01.598Z,90.05
2023-11-03T08:42:28.479Z,89.96
2023-11-03T08:44:55.135Z,90.93
2023-11-03T08:47:21.869Z,88.08
2023-11-03T08:49:48.545Z,88.79
2023-11-03T08:52:15.136Z,91.37
2023-11-03T08:54:41.940Z,87.90
2023-11-03T08:57:09.764Z,90.36
2023-11-03T08:59:37.845Z,91.70
2023-11-03T09:02:05.362Z,86.74
2023-11-03T09:04:31.892Z,87.80
2023-11-03T09:06:58.479Z,86.41
2023-11-03T09:09:25.780Z,85.37
2023-11-03T09:11:52.531Z,88.64
2023-11-03T09:14:19.107Z,88.92
2023-11-03T09:16:45.657Z,84.88
2023-11-03T09:19:12.897Z,87.70
2023-11-03T09:21:39.684Z,87.99
2023-11-03T09:24:07.072Z,85.78
2023-11-03T09:26:34.336Z,86.38
2023-11-03T09:29:02.158Z,86.73
2023-11-03T09:31:29.552Z,83.41
2023-11-03T09:33:56.861Z,84.56
2023-11-03T09:36:23.793Z,85.70
2023-11-03T09:38:50.316Z,83.12
2023-11-03T09:41:17.111Z,83.00
2023-11-03T09:43:46.375Z,84.34
2023-11-03T09:46:13.959Z,84.97
2023-11-03T09:48:42.345Z,83.11
2023-11-03T09:51:09.627Z,83.17
2023-11-03T09:53:37.754Z,81.24
2023-11-03T09:56:06.434Z,81.12
2023-11-03T09:58:36.293Z,82.38
2023-11-03T10:01:05.838Z,78.99
2023-11-03T10:03:34.406Z,80.74
2023-11-03T10:06:04.213Z,79.71
2023-11-03T10:08:30.835Z,80.51
2023-11-03T10:10:58.851Z,80.92
2023-11-03T10:13:26.279Z,79.62
2023-11-03T10:15:52.898Z,79.83
2023-11-03T10:18:19.586Z,81.37
2023-11-03T10:20:47.517Z,82.81
2023-11-03T10:23:14.815Z,82.37
2023-11-03T10:25:41.460Z,79.64
2023-11-03T10:28:08.960Z,79.92
2023-11-03T10:30:37.050Z,80.50
2023-11-03T10:33:04.474Z,81.06
2023-11-03T10:35:31.938Z,84.13
2023-11-03T10:37:58.633Z,77.88
2023-11-03T10:40:25.971Z,80.41
2023-11-03T10:42:54.533Z,80.96
2023-11-03T10:45:22.375Z,78.93
2023-11-03T10:48:12.702Z,79.17
2023-11-03T10:50:49.491Z,80.29
2023-11-03T10:53:30.867Z,79.90
2023-11-03T10:56:22.312Z,78.55
2023-11-03T10:58:53.202Z,78.66
2023-11-03T11:01:30.355Z,79.35
2023-11-03T11:04:26.793Z,79.71
2023-11-03T11:07:04.899Z,78.74
2023-11-03T11:09:44.028Z,80.04
2023-11-03T11:12:11.532Z,78.73
2023-11-03T11:14:39.567Z,78.45
2023-11-03T11:17:24.523Z,79.36
2023-11-03T11:19:57.114Z,79.32
2023-11-03T11:22:27.979Z,77.10
2023-11-03T11:24:57.773Z,80.56
2023-11-03T11:27:26.049Z,81.92
2023-11-03T11:30:13.185Z,82.58
2023-11-03T11:32:39.841Z,78.55
2023-11-03T11:35:09.873Z,83.10
2023-11-03T11:37:37.238Z,78.04
2023-11-03T11:40:07.313Z,77.84
2023-11-03T11:42:39.129Z,78.64
2023-11-03T11:45:10.130Z,77.83
2023-11-03T11:47:38.837Z,77.55
2023-11-03T11:50:06.618Z,80.86
2023-11-03T11:52:36.963Z,78.25
2023-11-03T11:55:05.631Z,78.05
2023-11-03T11:57:33.707Z,78.99
2023-11-03T12:00:00.816Z,77.60
2023-11-03T12:02:27.465Z,78.53
2023-11-03T12:04:56.758Z,78.41
2023-11-03T12:07:26.268Z,78.39
2023-11-03T12:09:55.271Z,79.83
2023-11-03T12:12:22.796Z,77.52
2023-11-03T12:14:49.513Z,77.28
2023-11-03T12:17:17.557Z,77.94
2023-11-03T12:19:47.605Z,79.10
2023-11-03T12:22:21.244Z,80.47
2023-11-03T12:24:49.367Z,79.51
2023-11-03T12:27:17.965Z,78.12
2023-11-03T12:29:45.985Z,79.28
2023-11-03T12:32:13.672Z,79.10
2023-11-03T12:34:42.380Z,80.31
2023-11-03T12:37:10.426Z,78.26
2023-11-03T12:39:55.958Z,79.44
2023-11-03T12:42:27.462Z,77.54
2023-11-03T12:45:02.064Z,76.90
2023-11-03T12:47:46.249Z,76.91
2023-11-03T12:50:23.387Z,77.37
2023-11-03T12:53:04.399Z,77.75
2023-11-03T12:55:35.778Z,76.75
2023-11-03T12:58:09.915Z,76.45
2023-11-03T13:00:37.997Z,75.32
2023-11-03T13:03:05.367Z,75.20
2023-11-03T13:05:32.979Z,75.32
2023-11-03T13:08:02.144Z,74.32
2023-11-03T13:10:32.172Z,73.89
2023-11-03T13:12:59.104Z,74.10
2023-11-03T13:15:27.821Z,74.87
2023-11-03T13:17:54.590Z,74.15
2023-11-03T13:20:21.877Z,72.72
2023-11-03T13:22:50.732Z,71.93
2023-11-03T13:25:18.437Z,75.57
2023-11-03T13:27:45.358Z,73.07
2023-11-03T13:30:12.770Z,73.03
2023-11-03T13:32:42.779Z,71.95
2023-11-03T13:35:11.144Z,71.85
2023-11-03T13:37:41.920Z,71.73
2023-11-03T13:40:09.947Z,72.37
2023-11-03T13:42:36.985Z,71.06
2023-11-03T13:45:04.696Z,71.59
2023-11-03T13:47:31.759Z,73.02
2023-11-03T13:50:07.875Z,72.18
2023-11-03T13:52:41.814Z,71.92
2023-11-03T13:55:09.926Z,73.17
2023-11-03T13:57:37.312Z,72.86
2023-11-03T14:00:07.500Z,73.44
2023-11-03T14:02:34.112Z,72.92
2023-11-03T14:05:00.750Z,72.56
2023-11-03T14:07:27.325Z,73.78
2023-11-03T14:09:53.889Z,72.32
2023-11-03T14:12:22.159Z,73.39
2023-11-03T14:14:49.832Z,72.91
2023-11-03T14:17:16.497Z,74.25
2023-11-03T14:19:43.197Z,75.29
2023-11-03T14:22:10.987Z,75.75
2023-11-03T14:24:38.012Z,77.74
2023-11-03T14:27:06.682Z,79.17
2023-11-03T14:29:34.289Z,76.98
2023-11-03T14:32:01.293Z,79.70
2023-11-03T14:34:28.738Z,81.90
2023-11-03T14:36:55.521Z,82.33
2023-11-03T14:39:24.122Z,83.12
2023-11-03T14:41:50.669Z,83.50
2023-11-03T14:44:17.486Z,83.41
2023-11-03T14:46:50.345Z,82.15
2023-11-03T14:49:19.596Z,83.96
2023-11-03T14:51:46.949Z,84.42
2023-11-03T14:54:15.991Z,85.11
2023-11-03T14:56:44.844Z,85.24
2023-11-03T14:59:11.496Z,86.00
2023-11-03T15:01:38.862Z,86.94
2023-11-03T15:04:06.302Z,87.99
2023-11-03T15:06:33.952Z,88.05
2023-11-03T15:09:00.820Z,88.36
2023-11-03T15:11:27.792Z,89.12
2023-11-03T15:14:00.282Z,88.65
2023-11-03T15:16:30.481Z,89.30
2023-11-03T15:18:58.184Z,90.34
2023-11-03T15:21:24.859Z,89.85
2023-11-03T15:23:51.351Z,90.50
2023-11-03T15:26:18.827Z,91.00
2023-11-03T15:28:45.404Z,91.03
2023-11-03T15:31:12.088Z,91.11
2023-11-03T15:33:38.691Z,91.23
2023-11-03T15:36:07.416Z,91.56
2023-11-03T15:38:34.762Z,91.47
2023-11-03T15:41:01.996Z,91.48
2023-11-03T15:43:29.043Z,91.75
2023-11-03T15:45:55.790Z,92.33
2023-11-03T15:48:22.691Z,92.44
2023-11-03T15:50:51.255Z,92.63
2023-11-03T15:53:18.037Z,92.74
2023-11-03T15:55:49.257Z,92.50
2023-11-03T15:58:21.375Z,92.82
2023-11-03T16:00:55.310Z,93.02
2023-11-03T16:03:23.184Z,93.36
2023-11-03T16:05:51.021Z,93.73
2023-11-03T16:08:18.039Z,94.05
2023-11-03T16:10:45.555Z,94.22
2023-11-03T16:13:13.800Z,94.16
2023-11-03T16:15:41.729Z,94.47
2023-11-03T16:18:09.415Z,94.88
2023-11-03T16:20:36.985Z,94.68
2023-11-03T16:23:03.522Z,94.72
2023-11-03T16:25:30.130Z,94.69
2023-11-03T16:27:57.267Z,95.08
2023-11-03T16:30:23.978Z,95.00
2023-11-03T16:32:50.750Z,94.98
2023-11-03T16:35:17.555Z,95.06
2023-11-03T16:37:44.497Z,94.95
2023-11-03T16:40:12.460Z,95.25
2023-11-03T16:42:39.597Z,95.38
2023-11-03T16:45:10.526Z,95.25
2023-11-03T16:47:37.145Z,95.42
2023-11-03T16:50:05.157Z,95.37
2023-11-03T16:52:36.162Z,95.24
2023-11-03T16:55:03.067Z,95.56
2023-11-03T16:57:30.786Z,95.66
2023-11-03T16:59:57.345Z,95.90
2023-11-03T17:02:23.892Z,95.95
2023-11-03T17:04:51.253Z,95.89
2023-11-03T17:07:17.998Z,96.23
2023-11-03T17:09:44.579Z,96.09
2023-11-03T17:12:11.154Z,96.20
2023-11-03T17:14:37.786Z,96.31
2023-11-03T17:17:04.517Z,95.94
2023-11-03T17:19:31.568Z,96.06
2023-11-03T17:21:58.146Z,96.39
2023-11-03T17:24:24.744Z,96.25
2023-11-03T17:26:51.870Z,96.38
2023-11-03T17:29:19.586Z,96.50
2023-11-03T17:31:46.333Z,96.49
2023-11-03T17:34:12.906Z,96.37
2023-11-03T17:36:39.748Z,96.62
2023-11-03T17:39:10.209Z,96.53
2023-11-03T17:41:37.471Z,96.49
2023-11-03T17:44:04.269Z,96.78
2023-11-03T17:46:31.348Z,96.79
2023-11-03T17:48:57.908Z,96.76
2023-11-03T17:51:24.495Z,96.84
2023-11-03T17:53:51.082Z,96.77
2023-11-03T17:56:18.076Z,96.75
2023-11-03T17:58:45.562Z,96.80
2023-11-03T18:01:12.756Z,96.86
2023-11-03T18:03:39.495Z,97.05
2023-11-03T18:06:06.317Z,97.00
2023-11-03T18:08:33.114Z,97.11
2023-11-03T18:11:00.835Z,97.18
2023-11-03T18:13:27.460Z,97.14
2023-11-03T18:15:54.097Z,97.11
2023-11-03T18:18:22.274Z,97.14
2023-11-03T18:20:50.139Z,97.16
2023-11-03T18:23:16.924Z,97.05
2023-11-03T18:25:43.872Z,97.20
2023-11-03T18:28:12.388Z,97.28
2023-11-03T18:30:39.392Z,97.21
2023-11-03T18:33:06.524Z,97.20
2023-11-03T18:35:33.451Z,97.22
2023-11-03T18:38:00.561Z,97.44
2023-11-03T18:40:30.256Z,97.54
2023-11-03T18:42:58.125Z,97.33
2023-11-03T18:45:26.934Z,97.57
2023-11-03T18:47:53.977Z,97.50
2023-11-03T18:52:52.830Z,97.44
2023-11-03T18:56:14.150Z,97.46
2023-11-03T18:58:47.498Z,97.61
2023-11-03T19:02:08.876Z,97.53
2023-11-03T19:08:42.011Z,97.62
2023-11-03T19:11:08.870Z,97.67
2023-11-03T19:13:37.015Z,97.65
2023-11-03T19:16:03.921Z,97.93
2023-11-03T19:18:36.934Z,97.91
2023-11-03T19:21:05.076Z,97.98
2023-11-03T19:23:32.545Z,97.94
2023-11-03T19:25:59.379Z,98.26
2023-11-03T19:28:25.902Z,98.35
2023-11-03T19:30:52.691Z,98.15
2023-11-03T19:33:19.375Z,98.28
2023-11-03T19:35:50.153Z,98.10
2023-11-03T19:38:21.375Z,96.31
2023-11-03T19:40:48.425Z,95.47
2023-11-03T19:43:14.951Z,94.21
2023-11-03T19:45:41.583Z,93.56
2023-11-03T19:48:12.393Z,93.14
2023-11-03T19:50:39.397Z,93.30
2023-11-03T19:53:05.972Z,93.11
2023-11-03T19:55:34.311Z,94.03
2023-11-03T19:58:00.921Z,93.97
2023-11-03T20:00:30.494Z,94.64
2023-11-03T20:02:57.642Z,94.83
2023-11-03T20:05:25.142Z,94.72
2023-11-03T20:07:52.653Z,94.38
2023-11-03T20:10:19.666Z,94.70
2023-11-03T20:12:46.389Z,95.44
2023-11-03T20:15:13.095Z,95.82
2023-11-03T20:17:41.191Z,95.79
2023-11-03T20:20:10.128Z,95.58
2023-11-03T20:22:36.804Z,96.06
2023-11-03T20:25:03.789Z,96.64
2023-11-03T20:27:32.138Z,96.69
2023-11-03T20:30:00.269Z,96.87
2023-11-03T20:32:26.858Z,96.73
2023-11-03T20:34:53.668Z,97.15
2023-11-03T20:37:20.247Z,96.63
2023-11-03T20:39:47.208Z,97.08
2023-11-03T20:42:15.226Z,96.74
2023-11-03T20:44:42.772Z,96.49
2023-11-03T20:47:09.445Z,96.51
2023-11-03T20:49:36.402Z,96.74
2023-11-03T20:52:03.126Z,96.90
2023-11-03T20:54:30.678Z,97.03
2023-11-03T20:56:57.248Z,97.12
2023-11-03T20:59:24.250Z,97.28
2023-11-03T21:01:52.008Z,96.95
2023-11-03T21:04:20.549Z,97.23
2023-11-03T21:06:48.397Z,97.20
2023-11-03T21:09:16.010Z,97.54
2023-11-03T21:11:42.894Z,97.48
2023-11-03T21:14:10.069Z,97.56
2023-11-03T21:16:36.640Z,97.62
2023-11-03T21:19:04.057Z,97.55
2023-11-03T21:21:32.051Z,97.29
2023-11-03T21:23:58.733Z,97.16
2023-11-03T21:26:26.428Z,97.30
2023-11-03T21:28:52.944Z,96.24
2023-11-03T21:31:19.563Z,96.24
2023-11-03T21:33:49.185Z,96.46
2023-11-03T21:36:26.112Z,96.63
2023-11-03T21:38:53.629Z,96.97
2023-11-03T21:41:20.534Z,96.97
2023-11-03T21:43:47.929Z,96.83
2023-11-03T21:46:25.261Z,96.36
2023-11-03T21:48:53.226Z,95.96
2023-11-03T21:51:20.700Z,95.72
2023-11-03T21:53:47.329Z,93.86
2023-11-03T21:56:13.945Z,95.13
2023-11-03T21:58:41.460Z,95.11
2023-11-03T22:01:11.675Z,95.35
2023-11-03T22:03:38.652Z,94.93
2023-11-03T22:06:06.308Z,93.56
2023-11-03T22:08:32.944Z,93.66
2023-11-03T22:11:00.970Z,93.93
2023-11-03T22:13:27.565Z,93.09
2023-11-03T22:15:54.170Z,93.45
2023-11-03T22:18:21.359Z,91.60
2023-11-03T22:20:48.178Z,91.49
2023-11-03T22:23:15.034Z,90.31
2023-11-03T22:25:41.639Z,90.87
2023-11-03T22:28:08.450Z,90.18
2023-11-03T22:30:37.926Z,90.51
2023-11-03T22:33:04.751Z,90.88
2023-11-03T22:35:31.306Z,89.31
2023-11-03T22:37:57.936Z,89.20
2023-11-03T22:40:24.545Z,89.07
2023-11-03T22:42:51.151Z,88.58
2023-11-03T22:45:17.889Z,88.50
2023-11-03T22:47:45.025Z,88.78
2023-11-03T22:50:14.447Z,88.88
2023-11-03T22:52:42.490Z,89.21
2023-11-03T22:55:12.208Z,89.44
2023-11-03T22:57:39.012Z,88.08
2023-11-03T23:00:12.471Z,88.39
2023-11-03T23:02:42.981Z,88.05
2023-11-03T23:05:09.902Z,87.49
2023-11-03T23:07:36.536Z,86.81
2023-11-03T23:10:03.535Z,86.93
2023-11-03T23:12:30.842Z,86.58
2023-11-03T23:14:57.687Z,86.91
2023-11-03T23:17:24.269Z,87.34
2023-11-03T23:19:50.813Z,86.84
2023-11-03T23:22:17.452Z,86.25
2023-11-03T23:24:44.163Z,86.76
2023-11-03T23:27:10.716Z,86.12
2023-11-03T23:29:37.482Z,86.79
2023-11-03T23:32:04.198Z,86.96
2023-11-03T23:34:30.914Z,86.99
2023-11-03T23:36:57.552Z,86.86
2023-11-03T23:39:24.090Z,86.48
2023-11-03T23:41:50.668Z,86.50
2023-11-03T23:44:17.231Z,86.61
2023-11-03T23:46:43.752Z,86.99
2023-11-03T23:49:10.434Z,86.09
2023-11-03T23:51:37.314Z,86.16
2023-11-03T23:54:04.064Z,86.25
2023-11-03T23:56:30.651Z,86.54
2023-11-03T23:58:57.142Z,86.72
